INDIA METEOROLOGICAL DEPARTMENT, R.M.C. NEW DELHI
Dated:22 - 9 - 2017
METARS


Ahmedabad  
VAAH 222030Z 28003KT 4000 HZ FEW020 SCT080 27/24 Q1007 NOSIG=
Amritsar   
VIAR 222030Z 09004KT 3500 BR SCT040 SCT100 25/25 Q1006 NOSIG=
Bangalore  
VOBL 222030Z 28005KT 8000 SCT012 SCT080 21/21 Q1014 NOSIG=
Bhubaneswar
VEBS 222030Z 22002KT 4000 HZ FEW020 27/26 Q1006 NOSIG=
Chennai    
VOMM 222030Z 25004KT 6000 FEW020 SCT100 29/26 Q1008 NOSIG=
Coimbatore 
VOCB 222030Z 23005KT 4000 BR FEW015 23/22 Q1011 NOSIG=
Colombo    
VCBI 222010Z 17005KT 7000 SCT016 26/24 Q1010 NOSIG=
Delhi      
VIDP 222030Z 03006KT 2200 BR BKN025 FEW035CB OVC080 24/23 Q1004 NOSIG=
Gauhati    
VEGT 222030Z NIL=
Gaya       
VEGY 222030Z NIL=
Hyderabad  
VOHS 222030Z VRB02KT 5000 HZ FEW010 SCT015 BKN100 23/23 Q1011 NOSIG=
Jaipur     
VIJP 222030Z 00000KT 3000 HZ SCT030 BKN090 27/21 Q1006 NOSIG=
Kochi      
VOCI 222030Z 09005KT 4000 HZ FEW015 SCT090 25/24 Q1009 NOSIG=
Kolkata    
VECC 222030Z 22005KT 3200 HZ FEW020 SCT100 28/26 Q1006 NOSIG=
Kozhikode  
VOCL 222030Z 28001KT 6000 FEW015 26/22 Q1009 NOSIG=
Lucknow    
VILK 221930Z VRB02KT 2500 BR SCT018 FEW030CB BKN090 26/26 Q1004=
Madurai    
VOMD 221900Z 00000KT 6000 FEW020 SCT100 27/23 Q1009 NOSIG=
Mumbai     
VABB 222030Z 00000KT 3500 HZ SCT020 SCT100 27/24 Q1008 NOSIG=
Nagpur     
VANP 222030Z 00000KT 4000 HZ SCT100 24/22 Q1008 NOSIG=
Patna      
VEPT 222030Z NIL=
Ranchi     
VERC 222030Z 23002KT 3000 HZ FEW020 25/23 Q1010 NOSIG=
Trichy     
VOTR 222030Z VRB03KT 4000 HZ FEW016 FEW025CB BKN080 29/22 Q1008 NOSIG=
Trivandrum 
VOTV 222030Z 33005KT 3000 HZ SCT015 26/24 Q1009 NOSIG=
Varanasi   
VEBN 222030Z 20003KT 3000 BR SCT020 SCT100 27/26 Q1004 NOSIG=
Vizag      
VOVZ 222000Z VRB02KT 5000 BR FEW018 SCT090 28/26 Q1006 NOSIG =
Male       
VRMM 222000Z 35004KT 9999 SCT018TCU 29/24 Q1011 NOSIG=
Gan        
VRMG 222000Z 01004KT 9999 FEW017TCU BKN260 27/23 Q1010 NOSIG=
Kathmandu  
VNKT 222030Z NIL=
Dhaka      
VGHS 222030Z 19004KT 4000 HZ NSC 28/24 Q1007 NOSIG=
Colombo    
VCBI 222010Z 17005KT 7000 SCT016 26/24 Q1010 NOSIG=
Karachi    
OPKC 222025Z 25004KT 6000 SCT020 27/22 Q1006 NOSIG=
Lahore     
OPLA 222025Z 13007KT 4000M FU FEW100 26/23 Q1006/A29.70=
Gwalior    
VIGR 221930Z VRB02KT 6000 SCT015 SCT020 BKN090 25/23 Q1003 NOSIG=
Pune       
VAPO 222030Z 27003KT 6000 FEW030 SCT250 21/20 Q1012 NOSIG=